Archival Weather

Chicago O'Hare International

Chicago, Illinois (KORD)

Report from: Tuesday, August 16, 2022 10:51 AM CDT
Current time: Sunday, February 25, 2024 4:28 PM CST

Current weather – Weather history – Daily summaries
Weather forecast

Temperature25.0°C (77.0°F)
Dew point12.2°C (54.0°F)
Winds 8 kts (4.1 m/s, 9.2 mph) Northeast (50°)
Visibility10 mi. (16.1 km)
Clouds Few clouds 5,000 ft. (1,524 m)
Few clouds 8,000 ft. (2,438 m)
Ceiling: Broken clouds 25,000 ft. (7,620 m)
Altimeter30.12 in.Hg (1020 mB)
Relative humidity45 %
Density altitude1,145 ft. (349 m)
Sea-level pressure102.0 kPa (1020 mB, 30.11 in.Hg)
Remarks Automated weather observing station with precipitation discriminator
Flight conditions Visual Meteorological Conditions
Raw dataKORD 161551Z 05008KT 10SM FEW050 FEW080 BKN250 25/12 A3012 RMK AO2 SLP196 T02500122
An error has occurred. This application may no longer respond until reloaded. Reload 🗙